Time;durP1;ratioP1;P1;durP2;ratioP2;P2;SDS_P1;SDS_P2;PMS_P1;PMS_P2;Temp;Humidity;BMP_temperature;BMP_pressure;BME280_temperature;BME280_humidity;BME280_pressure;Samples;Min_cycle;Max_cycle;Signal;HPM_P1;HPM_P2
2022/04/08 00:01:54;;;;;;;5.27;1.23;;;;;;;10.68;65.15;96600.13;4135690;28;20642;-88
2022/04/08 00:03:57;;;;;;;2.93;1.03;;;;;;;10.66;65.49;96615.91;4130564;28;20677;-87
2022/04/08 00:06:02;;;;;;;4.80;1.47;;;;;;;10.65;65.12;96605.63;4135643;28;20653;-87
2022/04/08 00:08:05;;;;;;;4.43;1.97;;;;;;;10.66;65.70;96608.09;4132802;28;20644;-88
2022/04/08 00:10:09;;;;;;;4.00;1.33;;;;;;;10.62;65.99;96611.94;4132275;28;20632;-87
2022/04/08 00:12:13;;;;;;;4.40;1.23;;;;;;;10.62;65.87;96624.16;4134930;28;20680;-87
2022/04/08 00:14:18;;;;;;;7.47;1.30;;;;;;;10.63;65.69;96617.97;4123366;28;20633;-87
2022/04/08 00:16:21;;;;;;;4.47;1.30;;;;;;;10.62;66.30;96618.94;4123146;28;20623;-87
2022/04/08 00:18:26;;;;;;;3.30;1.40;;;;;;;10.63;65.19;96613.59;4148307;28;20635;-87
2022/04/08 00:20:30;;;;;;;3.90;1.30;;;;;;;10.58;65.67;96614.97;4128445;28;20651;-87
2022/04/08 00:22:40;;;;;;;3.80;1.10;;;;;;;10.61;65.27;96618.09;4136573;28;20645;-87
2022/04/08 00:24:46;;;;;;;4.40;1.17;;;;;;;10.60;65.52;96615.63;4134367;28;21021;-87
2022/04/08 00:26:49;;;;;;;7.13;1.67;;;;;;;10.60;64.73;96618.25;4137979;28;21099;-88
2022/04/08 00:28:53;;;;;;;4.43;1.40;;;;;;;10.56;65.47;96616.91;4131085;28;20637;-87
2022/04/08 00:30:57;;;;;;;4.97;1.50;;;;;;;10.60;65.10;96615.63;4146784;28;20651;-87
2022/04/08 00:33:00;;;;;;;5.33;1.27;;;;;;;10.56;64.94;96617.72;4132482;28;20630;-87
2022/04/08 00:35:05;;;;;;;4.20;1.53;;;;;;;10.55;65.45;96620.47;4127051;28;20776;-87
2022/04/08 00:37:11;;;;;;;3.83;1.40;;;;;;;10.54;65.98;96634.44;4132436;28;20640;-87
2022/04/08 00:39:14;;;;;;;4.43;1.40;;;;;;;10.58;66.36;96622.78;4145952;28;20623;-87
2022/04/08 00:41:17;;;;;;;4.73;1.40;;;;;;;10.54;66.26;96639.66;4132038;28;20730;-87
2022/04/08 00:43:21;;;;;;;4.77;1.53;;;;;;;10.53;66.90;96638.84;4131675;28;20625;-87
2022/04/08 00:45:24;;;;;;;5.40;1.30;;;;;;;10.54;66.39;96643.09;4145961;28;20767;-87
2022/04/08 00:47:27;;;;;;;5.10;1.50;;;;;;;10.56;66.66;96642.97;4120820;28;20649;-87
2022/04/08 00:49:30;;;;;;;6.30;1.20;;;;;;;10.58;67.24;96641.03;4140280;28;20649;-87
2022/04/08 00:51:35;;;;;;;2.57;1.33;;;;;;;10.63;66.52;96650.09;4132337;28;20652;-87
2022/04/08 00:53:39;;;;;;;6.80;1.30;;;;;;;10.62;67.44;96645.00;4131325;28;20639;-88
2022/04/08 00:55:42;;;;;;;4.73;1.60;;;;;;;10.62;66.49;96647.63;4136275;28;20637;-87
2022/04/08 00:57:46;;;;;;;4.87;1.47;;;;;;;10.64;67.46;96645.69;4135812;28;20665;-87
2022/04/08 00:59:50;;;;;;;4.80;1.27;;;;;;;10.62;67.12;96645.81;4124604;28;20644;-87
2022/04/08 01:01:53;;;;;;;5.10;1.53;;;;;;;10.61;68.00;96649.38;4134795;28;20660;-87
2022/04/08 01:03:58;;;;;;;5.23;1.80;;;;;;;10.59;67.74;96653.94;4135515;28;20638;-87
2022/04/08 01:06:02;;;;;;;4.93;1.67;;;;;;;10.58;68.64;96654.88;4138757;28;20759;-88
2022/04/08 01:08:10;;;;;;;4.93;1.50;;;;;;;10.56;69.25;96649.00;4133590;28;20663;-88
2022/04/08 01:10:13;;;;;;;3.87;1.30;;;;;;;10.59;68.23;96658.34;4129269;28;20644;-88
2022/04/08 01:12:16;;;;;;;5.23;1.17;;;;;;;10.55;68.76;96655.16;4129174;28;20748;-87
2022/04/08 01:14:19;;;;;;;3.20;1.43;;;;;;;10.49;68.45;96653.13;4140680;28;20643;-88
2022/04/08 01:16:23;;;;;;;3.07;1.20;;;;;;;10.48;68.89;96655.88;4139118;28;20704;-88
2022/04/08 01:18:26;;;;;;;3.87;1.20;;;;;;;10.48;68.95;96653.28;4150807;28;20639;-87
2022/04/08 01:20:29;;;;;;;4.50;1.80;;;;;;;10.43;69.30;96658.91;4134676;28;20640;-87
2022/04/08 01:22:33;;;;;;;3.70;1.50;;;;;;;10.40;69.04;96663.56;4129997;28;20663;-87
2022/04/08 01:24:41;;;;;;;6.27;1.60;;;;;;;10.39;68.97;96667.16;4145837;28;20727;-88
2022/04/08 01:26:48;;;;;;;3.40;1.40;;;;;;;10.39;69.35;96662.75;4142341;28;20720;-88
2022/04/08 01:28:52;;;;;;;4.93;1.50;;;;;;;10.39;68.97;96648.91;4123504;28;20646;-88
2022/04/08 01:30:57;;;;;;;6.57;1.47;;;;;;;10.34;69.28;96664.94;4141061;28;20638;-88
2022/04/08 01:33:00;;;;;;;5.40;1.90;;;;;;;10.32;69.56;96665.22;4147252;28;20657;-88
2022/04/08 01:35:04;;;;;;;2.77;1.17;;;;;;;10.32;69.12;96668.66;4129459;28;20663;-87
2022/04/08 01:37:08;;;;;;;5.63;1.60;;;;;;;10.28;70.33;96662.06;4147362;28;21181;-88
2022/04/08 01:39:11;;;;;;;4.53;1.40;;;;;;;10.25;69.37;96675.34;4138746;28;20708;-87
2022/04/08 01:41:16;;;;;;;7.87;1.97;;;;;;;10.24;69.28;96681.53;4136610;28;20651;-88
2022/04/08 01:43:21;;;;;;;5.67;1.43;;;;;;;10.22;68.96;96678.22;4136447;28;20731;-88
2022/04/08 01:45:27;;;;;;;4.30;2.00;;;;;;;10.23;69.26;96671.25;4131372;28;20659;-87
2022/04/08 01:47:31;;;;;;;5.00;1.60;;;;;;;10.19;69.50;96681.09;4137892;28;20658;-87
2022/04/08 01:49:37;;;;;;;4.50;1.73;;;;;;;10.23;69.05;96682.50;4135095;28;20642;-87
2022/04/08 01:51:40;;;;;;;5.07;1.50;;;;;;;10.22;68.84;96690.44;4134885;28;20739;-87
2022/04/08 01:53:45;;;;;;;3.40;1.17;;;;;;;10.22;69.26;96699.06;4124353;28;20646;-87
2022/04/08 01:55:49;;;;;;;5.77;1.50;;;;;;;10.21;67.64;96692.25;4151382;28;21271;-87
2022/04/08 01:57:52;;;;;;;3.40;1.60;;;;;;;10.15;67.50;96690.19;4135856;28;20740;-87
2022/04/08 01:59:57;;;;;;;6.03;1.33;;;;;;;10.16;67.53;96699.63;4137965;28;20723;-87
2022/04/08 02:02:00;;;;;;;7.43;1.40;;;;;;;10.16;67.16;96689.19;4130709;28;20636;-87
2022/04/08 02:04:04;;;;;;;3.17;1.13;;;;;;;10.16;67.79;96702.22;4136704;28;20638;-87
2022/04/08 02:06:10;;;;;;;5.63;2.30;;;;;;;10.17;67.48;96688.25;4134337;28;20637;-87
2022/04/08 02:08:14;;;;;;;3.80;1.37;;;;;;;10.15;67.13;96691.94;4132994;28;20736;-87
2022/04/08 02:10:17;;;;;;;5.97;1.53;;;;;;;10.14;66.97;96691.13;4133979;28;20724;-87
2022/04/08 02:12:20;;;;;;;8.07;1.40;;;;;;;10.16;67.02;96702.22;4148489;28;20640;-87
2022/04/08 02:14:24;;;;;;;5.63;2.00;;;;;;;10.15;66.96;96707.56;4127266;28;20738;-87
2022/04/08 02:16:28;;;;;;;5.97;2.30;;;;;;;10.16;68.02;96706.63;4140145;28;20646;-87
2022/04/08 02:18:32;;;;;;;6.83;1.40;;;;;;;10.11;67.22;96714.84;4138316;28;21070;-88
2022/04/08 02:20:35;;;;;;;4.13;1.37;;;;;;;10.08;67.31;96715.13;4134903;28;21364;-87
2022/04/08 02:22:38;;;;;;;4.67;1.57;;;;;;;10.06;68.07;96709.22;4136495;28;20629;-88
2022/04/08 02:24:42;;;;;;;6.60;1.30;;;;;;;10.05;68.03;96711.97;4135387;28;21236;-87
2022/04/08 02:26:45;;;;;;;3.10;1.40;;;;;;;10.04;68.23;96713.75;4135210;28;21054;-87
2022/04/08 02:28:48;;;;;;;5.50;1.10;;;;;;;10.02;67.57;96710.44;4152332;28;20651;-88
2022/04/08 02:30:54;;;;;;;8.37;3.50;;;;;;;10.04;68.17;96711.16;4137997;28;20627;-87
2022/04/08 02:33:01;;;;;;;4.80;1.47;;;;;;;10.06;68.39;96704.00;4136974;28;20640;-88
2022/04/08 02:35:05;;;;;;;5.20;1.37;;;;;;;10.04;68.72;96705.94;4133567;28;20668;-88
2022/04/08 02:37:14;;;;;;;8.23;1.50;;;;;;;10.05;68.69;96709.34;4134644;28;20650;-88
2022/04/08 02:39:17;;;;;;;3.93;1.57;;;;;;;10.03;69.20;96713.88;4138786;28;21461;-87
2022/04/08 02:41:20;;;;;;;6.30;1.70;;;;;;;10.02;69.51;96710.44;4136583;28;20675;-87
2022/04/08 02:43:23;;;;;;;7.70;1.40;;;;;;;10.03;69.84;96712.09;4133198;28;20671;-87
2022/04/08 02:45:26;;;;;;;6.00;1.40;;;;;;;10.02;70.40;96720.03;4134167;28;20638;-88
2022/04/08 02:47:30;;;;;;;5.23;1.30;;;;;;;10.02;70.15;96730.47;4137916;28;20672;-87
2022/04/08 02:49:34;;;;;;;7.63;1.80;;;;;;;10.05;70.11;96724.97;4136047;28;20631;-87
2022/04/08 02:51:37;;;;;;;5.57;1.50;;;;;;;10.02;70.39;96731.28;4133889;28;21316;-88
2022/04/08 02:53:44;;;;;;;6.93;1.63;;;;;;;10.01;70.51;96732.25;4139446;28;20641;-88
2022/04/08 02:55:47;;;;;;;6.20;1.83;;;;;;;10.01;71.00;96727.03;4134296;28;20634;-88
2022/04/08 02:57:50;;;;;;;3.67;1.43;;;;;;;10.00;71.09;96730.59;4134747;28;20644;-88
2022/04/08 02:59:54;;;;;;;6.30;1.53;;;;;;;10.03;71.94;96735.53;4135241;28;20742;-87
2022/04/08 03:01:57;;;;;;;6.90;1.67;;;;;;;10.02;71.64;96736.47;4135483;28;20651;-87
2022/04/08 03:04:06;;;;;;;5.30;2.30;;;;;;;9.96;71.71;96733.59;4135074;28;20682;-87
2022/04/08 03:06:11;;;;;;;5.40;1.77;;;;;;;9.97;72.28;96738.69;4150926;28;21278;-88
2022/04/08 03:08:14;;;;;;;4.00;1.90;;;;;;;9.97;72.57;96743.88;4122150;28;20648;-88
2022/04/08 03:10:20;;;;;;;5.70;1.50;;;;;;;9.94;72.28;96744.16;4149485;28;20684;-88
2022/04/08 03:12:24;;;;;;;6.37;1.97;;;;;;;9.92;71.73;96745.19;4114808;28;20654;-88
2022/04/08 03:14:27;;;;;;;3.63;1.50;;;;;;;9.94;71.83;96753.75;4140829;28;20732;-87
2022/04/08 03:16:31;;;;;;;8.73;1.40;;;;;;;9.92;72.26;96746.03;4146231;28;20644;-88
2022/04/08 03:18:34;;;;;;;4.43;1.40;;;;;;;9.87;72.60;96745.59;4142027;28;20770;-87
2022/04/08 03:20:37;;;;;;;2.93;1.27;;;;;;;9.88;71.72;96739.44;4138947;28;20681;-87
2022/04/08 03:22:42;;;;;;;5.60;1.40;;;;;;;9.86;71.96;96746.56;4139213;28;20638;-88
2022/04/08 03:24:45;;;;;;;7.43;1.73;;;;;;;9.87;70.65;96742.19;4137923;28;20700;-88
2022/04/08 03:26:48;;;;;;;6.33;1.73;;;;;;;9.91;70.62;96748.78;4137375;28;21326;-88
2022/04/08 03:28:54;;;;;;;6.00;1.70;;;;;;;9.84;70.30;96744.25;4136566;28;20672;-88
2022/04/08 03:31:02;;;;;;;7.37;1.87;;;;;;;9.85;70.44;96754.53;4149616;28;20733;-87
2022/04/08 03:33:07;;;;;;;5.57;1.60;;;;;;;9.81;71.15;96752.31;4150524;28;20641;-88
2022/04/08 03:35:13;;;;;;;6.13;1.70;;;;;;;9.79;71.36;96755.06;4130243;28;20641;-87
2022/04/08 03:37:20;;;;;;;3.50;1.70;;;;;;;9.77;71.36;96751.72;4120658;28;20682;-88
2022/04/08 03:39:27;;;;;;;3.70;1.43;;;;;;;9.81;70.88;96762.72;4137272;28;20647;-88
2022/04/08 03:41:32;;;;;;;5.80;1.43;;;;;;;9.78;71.30;96747.38;4136300;28;20623;-88
2022/04/08 03:43:38;;;;;;;4.40;2.07;;;;;;;9.77;70.33;96756.13;4125194;28;20706;-87
2022/04/08 03:45:43;;;;;;;5.77;1.20;;;;;;;9.73;71.72;96759.97;4147956;28;20635;-88
2022/04/08 03:47:51;;;;;;;4.17;1.30;;;;;;;9.75;70.84;96768.47;4121608;28;20729;-88
2022/04/08 03:49:57;;;;;;;5.57;2.00;;;;;;;9.78;70.90;96757.78;4119787;28;20655;-87
2022/04/08 03:52:00;;;;;;;3.80;1.60;;;;;;;9.74;70.91;96772.00;4130319;28;20634;-87
2022/04/08 03:54:04;;;;;;;4.77;1.80;;;;;;;9.75;71.74;96774.47;4130682;28;20755;-88
2022/04/08 03:56:10;;;;;;;5.17;1.60;;;;;;;9.74;70.84;96766.81;4133721;28;20687;-88
2022/04/08 03:58:15;;;;;;;5.27;1.80;;;;;;;9.74;70.81;96778.06;4124345;28;20635;-88
2022/04/08 04:00:19;;;;;;;4.40;1.60;;;;;;;9.75;71.54;96774.47;4132965;28;20650;-88
2022/04/08 04:02:22;;;;;;;3.67;1.80;;;;;;;9.74;71.38;96778.06;4138150;28;20636;-88
2022/04/08 04:04:27;;;;;;;3.67;1.60;;;;;;;9.79;71.39;96785.44;4137408;28;20639;-87
2022/04/08 04:06:30;;;;;;;6.47;1.60;;;;;;;9.81;71.85;96780.97;4129912;28;20687;-87
2022/04/08 04:08:34;;;;;;;5.47;1.53;;;;;;;9.80;72.33;96781.91;4135070;28;20665;-87
2022/04/08 04:10:38;;;;;;;4.07;1.53;;;;;;;9.79;71.66;96772.44;4136038;28;21194;-87
2022/04/08 04:12:43;;;;;;;2.70;1.20;;;;;;;9.78;71.67;96773.41;4133972;28;20769;-87
2022/04/08 04:14:47;;;;;;;6.07;1.87;;;;;;;9.81;71.97;96773.16;4133379;28;20679;-87
2022/04/08 04:16:50;;;;;;;4.87;1.20;;;;;;;9.81;71.40;96767.94;4149091;28;20637;-87
2022/04/08 04:18:53;;;;;;;3.17;1.40;;;;;;;9.81;71.85;96775.75;4135943;28;20669;-87
2022/04/08 04:20:57;;;;;;;5.13;1.90;;;;;;;9.83;71.31;96784.25;4133775;28;20634;-87
2022/04/08 04:23:00;;;;;;;4.37;1.47;;;;;;;9.78;71.13;96778.63;4130345;28;20617;-87
2022/04/08 04:25:08;;;;;;;4.27;1.20;;;;;;;9.76;70.96;96775.28;4133342;28;21064;-87
2022/04/08 04:27:12;;;;;;;4.20;1.20;;;;;;;9.81;70.25;96767.94;4117137;28;20690;-87
2022/04/08 04:29:18;;;;;;;3.77;1.40;;;;;;;9.76;70.53;96770.09;4147143;28;20746;-87
2022/04/08 04:31:21;;;;;;;8.93;2.00;;;;;;;9.74;70.63;96780.66;4129714;28;20664;-86
2022/04/08 04:33:26;;;;;;;7.20;1.70;;;;;;;9.73;69.92;96775.59;4147712;28;20632;-86
2022/04/08 04:35:29;;;;;;;7.60;1.70;;;;;;;9.70;70.59;96776.66;4129191;28;20739;-86
2022/04/08 04:37:35;;;;;;;4.90;1.80;;;;;;;9.66;70.34;96779.66;4132776;28;21234;-85
2022/04/08 04:39:38;;;;;;;7.70;2.63;;;;;;;9.64;70.16;96768.56;4134755;28;20690;-87
2022/04/08 04:41:41;;;;;;;5.77;1.63;;;;;;;9.64;69.80;96785.00;4148212;28;20637;-87
2022/04/08 04:43:45;;;;;;;8.37;1.60;;;;;;;9.67;69.68;96784.75;4134932;28;20727;-86
2022/04/08 04:45:49;;;;;;;6.43;2.07;;;;;;;9.70;70.18;96791.47;4130645;28;20632;-87
2022/04/08 04:47:55;;;;;;;6.23;1.33;;;;;;;9.69;70.08;96792.41;4142935;28;20695;-87
2022/04/08 04:50:01;;;;;;;3.93;1.40;;;;;;;9.68;69.48;96796.81;4138046;28;20662;-88
2022/04/08 04:52:05;;;;;;;6.23;1.50;;;;;;;9.74;69.80;96792.84;4140189;28;20670;-87
2022/04/08 04:54:09;;;;;;;3.87;1.80;;;;;;;9.76;69.72;96796.13;4140829;28;20685;-87
2022/04/08 04:56:12;;;;;;;4.27;1.40;;;;;;;9.70;70.09;96794.06;4131031;28;20694;-88
2022/04/08 04:58:15;;;;;;;6.10;1.87;;;;;;;9.68;69.30;96795.97;4136244;28;20642;-88
2022/04/08 05:00:19;;;;;;;7.40;1.70;;;;;;;9.70;69.90;96800.09;4137840;28;20649;-88
2022/04/08 05:02:24;;;;;;;2.73;1.30;;;;;;;9.69;70.02;96797.63;4143141;28;20639;-88
2022/04/08 05:04:28;;;;;;;5.73;1.40;;;;;;;9.66;69.85;96790.88;4144127;28;20720;-87
2022/04/08 05:06:34;;;;;;;5.90;1.63;;;;;;;9.74;68.96;96801.50;4138473;28;21090;-88
2022/04/08 05:08:38;;;;;;;6.90;1.67;;;;;;;9.74;69.69;96803.25;4138271;28;20672;-87
2022/04/08 05:10:41;;;;;;;4.30;1.43;;;;;;;9.70;69.78;96789.69;4133409;28;20656;-87
2022/04/08 05:12:46;;;;;;;5.83;1.80;;;;;;;9.64;69.79;96800.63;4118158;28;21099;-87
2022/04/08 05:14:50;;;;;;;4.33;1.60;;;;;;;9.69;69.68;96795.03;4153973;28;20674;-87
2022/04/08 05:16:53;;;;;;;6.17;1.80;;;;;;;9.64;69.75;96786.78;4132349;28;20645;-87
2022/04/08 05:18:58;;;;;;;4.90;1.67;;;;;;;9.62;69.68;96789.53;4136512;28;20753;-88
2022/04/08 05:21:01;;;;;;;7.10;2.03;;;;;;;9.60;70.55;96795.81;4138043;28;20733;-88
2022/04/08 05:23:05;;;;;;;8.07;1.90;;;;;;;9.58;70.86;96789.91;4146421;28;20774;-88
2022/04/08 05:25:10;;;;;;;7.83;1.80;;;;;;;9.58;70.73;96795.13;4139141;28;20637;-88
2022/04/08 05:27:13;;;;;;;8.73;2.33;;;;;;;9.58;71.11;96795.13;4129043;28;20639;-88
2022/04/08 05:29:16;;;;;;;5.60;1.37;;;;;;;9.59;71.81;96802.81;4117792;28;20694;-87
2022/04/08 05:31:20;;;;;;;8.30;1.80;;;;;;;9.60;71.03;96814.84;4138233;28;21081;-87
2022/04/08 05:33:23;;;;;;;10.83;2.67;;;;;;;9.64;71.13;96816.25;4135122;28;20643;-88
2022/04/08 05:35:28;;;;;;;8.20;2.00;;;;;;;9.66;71.89;96816.09;4121884;28;21023;-87
2022/04/08 05:37:31;;;;;;;6.63;1.70;;;;;;;9.67;72.32;96823.78;4134170;28;20640;-87
2022/04/08 05:39:34;;;;;;;6.90;1.70;;;;;;;9.69;71.44;96821.06;4140218;28;20690;-87
2022/04/08 05:41:38;;;;;;;5.17;1.60;;;;;;;9.72;72.23;96819.00;4136460;28;20644;-87
2022/04/08 05:43:44;;;;;;;6.13;1.90;;;;;;;9.78;71.62;96817.66;4153154;28;20622;-87
2022/04/08 05:45:47;;;;;;;3.60;1.67;;;;;;;9.82;72.14;96813.81;4133764;28;20666;-87
2022/04/08 05:47:52;;;;;;;8.23;2.17;;;;;;;9.84;72.00;96824.94;4147861;28;20628;-88
2022/04/08 05:49:59;;;;;;;7.40;1.53;;;;;;;9.90;71.96;96826.06;4136641;28;20647;-87
2022/04/08 05:52:04;;;;;;;3.40;1.87;;;;;;;9.88;72.37;96827.16;4134221;28;20635;-88
2022/04/08 05:54:08;;;;;;;8.83;1.70;;;;;;;9.89;72.10;96819.22;4134658;28;20653;-87
2022/04/08 05:56:11;;;;;;;6.13;1.80;;;;;;;9.92;71.75;96823.31;4139070;28;20619;-87
2022/04/08 05:58:15;;;;;;;6.17;1.73;;;;;;;9.92;72.11;96818.97;4133631;28;20639;-88
2022/04/08 06:00:20;;;;;;;2.90;1.53;;;;;;;9.93;72.19;96818.00;4137019;28;20682;-88
2022/04/08 06:02:24;;;;;;;7.37;1.77;;;;;;;9.94;72.34;96822.28;4133719;28;20684;-88
2022/04/08 06:04:27;;;;;;;7.80;1.87;;;;;;;10.00;71.49;96839.97;4124879;28;20647;-89
2022/04/08 06:06:31;;;;;;;7.63;1.67;;;;;;;10.05;72.08;96831.78;4111436;28;21226;-85
2022/04/08 06:08:38;;;;;;;4.47;1.73;;;;;;;10.12;72.23;96830.31;4148310;28;20700;-88
2022/04/08 06:10:41;;;;;;;6.23;1.80;;;;;;;10.14;72.14;96828.38;4123424;28;21000;-85
2022/04/08 06:12:44;;;;;;;5.53;1.63;;;;;;;10.17;72.74;96828.94;4139326;28;20687;-86
2022/04/08 06:14:48;;;;;;;8.60;2.03;;;;;;;10.18;72.30;96819.31;4134390;28;20670;-85
2022/04/08 06:16:51;;;;;;;7.00;2.13;;;;;;;10.18;72.91;96827.13;4133908;28;20652;-86
2022/04/08 06:18:55;;;;;;;6.37;2.20;;;;;;;10.21;72.01;96819.91;4134215;28;21271;-85
2022/04/08 06:21:00;;;;;;;4.93;1.53;;;;;;;10.17;73.02;96822.91;4132316;28;20646;-86
2022/04/08 06:23:03;;;;;;;5.17;2.10;;;;;;;10.13;72.70;96821.50;4152763;28;20733;-90
2022/04/08 06:25:10;;;;;;;2.60;1.37;;;;;;;10.17;73.41;96822.91;4151188;28;20643;-89
2022/04/08 06:27:13;;;;;;;11.07;1.97;;;;;;;10.22;74.19;96823.31;4139983;28;20662;-89
2022/04/08 06:29:16;;;;;;;10.93;2.13;;;;;;;10.24;73.32;96809.22;4156879;28;20736;-88
2022/04/08 06:31:21;;;;;;;5.07;1.77;;;;;;;10.27;73.46;96808.94;4137246;28;20759;-89
2022/04/08 06:33:24;;;;;;;8.40;1.80;;;;;;;10.28;74.00;96810.56;4141460;28;20717;-89
2022/04/08 06:35:28;;;;;;;11.17;2.40;;;;;;;10.29;73.89;96794.00;4133444;28;20639;-91
2022/04/08 06:37:31;;;;;;;5.60;1.93;;;;;;;10.33;74.53;96798.78;4126048;28;20649;-90
2022/04/08 06:39:34;;;;;;;5.80;1.70;;;;;;;10.41;75.01;96800.72;4140283;28;20633;-89
2022/04/08 06:41:39;;;;;;;6.93;2.67;;;;;;;10.47;73.69;96798.41;4152325;28;20643;-89
2022/04/08 06:43:42;;;;;;;8.20;3.50;;;;;;;10.52;73.45;96793.59;4133559;28;20649;-89
2022/04/08 06:45:46;;;;;;;5.20;2.00;;;;;;;10.57;73.72;96793.19;4145711;28;20722;-88
2022/04/08 06:47:49;;;;;;;8.50;2.10;;;;;;;10.49;73.79;96787.84;4137556;28;20740;-86
2022/04/08 06:49:53;;;;;;;2.87;1.60;;;;;;;10.40;74.06;96793.84;4140131;28;20657;-87
2022/04/08 06:51:58;;;;;;;6.90;2.47;;;;;;;10.39;73.48;96792.22;4138458;28;21230;-88
2022/04/08 06:54:01;;;;;;;7.83;1.67;;;;;;;10.37;74.47;96788.91;4139357;28;20990;-87
2022/04/08 06:56:05;;;;;;;5.20;1.60;;;;;;;10.41;74.54;96795.50;4154636;28;21272;-87
2022/04/08 06:58:10;;;;;;;13.63;2.43;;;;;;;10.35;75.09;96791.66;4140360;28;20680;-88
2022/04/08 07:00:14;;;;;;;4.87;1.77;;;;;;;10.24;74.47;96792.72;4125214;28;20672;-87
2022/04/08 07:02:17;;;;;;;5.97;1.47;;;;;;;10.19;75.52;96787.91;4138831;28;20674;-87
2022/04/08 07:04:21;;;;;;;5.10;1.80;;;;;;;10.22;74.90;96779.84;4143194;28;20647;-87
2022/04/08 07:06:24;;;;;;;3.27;1.70;;;;;;;10.14;75.30;96779.69;4150351;28;20666;-87
2022/04/08 07:08:27;;;;;;;4.93;1.73;;;;;;;10.16;75.22;96779.56;4140062;28;20635;-87
2022/04/08 07:10:31;;;;;;;4.30;1.57;;;;;;;10.15;75.32;96785.72;4151320;28;20656;-89
2022/04/08 07:12:34;;;;;;;3.40;1.50;;;;;;;10.17;75.22;96782.03;4134647;28;20639;-88
2022/04/08 07:14:39;;;;;;;4.17;1.60;;;;;;;10.06;75.66;96779.56;4144126;28;20982;-89
2022/04/08 07:16:43;;;;;;;4.80;2.00;;;;;;;9.92;75.00;96761.66;4135285;28;21198;-88
2022/04/08 07:18:47;;;;;;;5.07;2.40;;;;;;;9.89;75.86;96769.75;4133719;28;21004;-87
2022/04/08 07:20:50;;;;;;;6.07;1.70;;;;;;;9.82;77.32;96772.16;4128165;28;21274;-88
2022/04/08 07:22:54;;;;;;;8.93;1.90;;;;;;;9.75;78.19;96768.47;4149841;28;20651;-87
2022/04/08 07:24:58;;;;;;;4.87;2.00;;;;;;;9.63;78.17;96762.53;4133371;28;22146;-87
2022/04/08 07:27:01;;;;;;;4.47;1.63;;;;;;;9.50;78.71;96759.34;4142849;28;20638;-86
2022/04/08 07:29:05;;;;;;;2.50;1.30;;;;;;;9.47;78.45;96761.34;4125203;28;21270;-87
2022/04/08 07:31:10;;;;;;;2.63;1.40;;;;;;;9.41;79.55;96749.72;4150831;28;21046;-87
2022/04/08 07:33:13;;;;;;;6.57;2.00;;;;;;;9.29;79.37;96752.53;4145795;28;21252;-87
2022/04/08 07:35:17;;;;;;;3.23;1.30;;;;;;;9.23;80.94;96754.81;4140143;28;20671;-87
2022/04/08 07:37:31;;;;;;;4.73;1.57;;;;;;;9.29;79.50;96751.69;4147379;28;21451;-87
2022/04/08 07:39:37;;;;;;;10.80;1.77;;;;;;;9.33;79.28;96761.72;4140940;28;20692;-89
2022/04/08 07:41:40;;;;;;;3.97;1.57;;;;;;;9.39;79.04;96751.59;4132807;28;20648;-86
2022/04/08 07:43:43;;;;;;;2.83;1.20;;;;;;;9.44;79.79;96751.22;4134831;28;20677;-87
2022/04/08 07:45:46;;;;;;;2.27;1.20;;;;;;;9.45;80.56;96745.88;4126058;28;20662;-88
2022/04/08 07:47:51;;;;;;;4.87;2.33;;;;;;;9.47;81.14;96745.75;4136660;28;21304;-88
2022/04/08 07:49:57;;;;;;;6.37;1.60;;;;;;;9.54;81.60;96744.28;4138068;28;20739;-90
2022/04/08 07:52:01;;;;;;;3.87;1.40;;;;;;;9.57;80.93;96750.03;4138268;28;20674;-86
2022/04/08 07:54:04;;;;;;;6.53;2.70;;;;;;;9.63;81.37;96746.09;4149394;28;20646;-87
2022/04/08 07:56:11;;;;;;;5.53;2.00;;;;;;;9.53;80.93;96734.81;4135394;28;21409;-86
2022/04/08 07:58:15;;;;;;;4.17;1.90;;;;;;;9.47;81.27;96737.94;4154209;28;21456;-87
2022/04/08 08:00:20;;;;;;;3.67;1.37;;;;;;;9.21;82.74;96741.13;4141228;28;20728;-86
2022/04/08 08:02:26;;;;;;;4.23;1.40;;;;;;;9.13;83.04;96735.75;4133938;28;21443;-86
2022/04/08 08:04:31;;;;;;;3.73;1.50;;;;;;;9.00;84.90;96743.72;4134366;28;20639;-86
2022/04/08 08:06:34;;;;;;;3.33;1.40;;;;;;;9.00;84.98;96738.53;4138264;28;20687;-87
2022/04/08 08:08:39;;;;;;;3.23;1.57;;;;;;;8.86;84.64;96732.03;4137322;28;20644;-88
2022/04/08 08:10:42;;;;;;;5.27;1.33;;;;;;;8.81;85.46;96723.78;4136338;28;20643;-88
2022/04/08 08:12:46;;;;;;;4.03;1.30;;;;;;;8.82;86.24;96718.44;4144019;28;21433;-87
2022/04/08 08:14:54;;;;;;;3.63;1.40;;;;;;;8.81;87.37;96715.97;4133626;28;20642;-86
2022/04/08 08:16:58;;;;;;;4.23;2.03;;;;;;;8.83;87.13;96716.69;4133512;28;20655;-84
2022/04/08 08:19:01;;;;;;;4.28;1.60;;;;;;;8.90;86.58;96712.63;4133587;28;20643;-82
2022/04/08 08:21:06;;;;;;;3.75;1.50;;;;;;;8.97;88.08;96714.56;4142417;28;20223;-86
2022/04/08 08:23:09;;;;;;;3.65;2.05;;;;;;;9.01;87.85;96716.78;4134018;28;20211;-84
2022/04/08 08:25:13;;;;;;;7.35;2.20;;;;;;;9.05;89.22;96704.34;4133720;28;20216;-84
2022/04/08 08:27:16;;;;;;;4.35;1.70;;;;;;;9.14;88.53;96707.00;4148234;28;20199;-84
2022/04/08 08:29:20;;;;;;;4.15;1.40;;;;;;;9.21;88.53;96704.72;4150722;28;20210;-85
2022/04/08 08:31:23;;;;;;;4.93;2.00;;;;;;;9.18;89.31;96700.56;4120675;28;20237;-84
2022/04/08 08:33:26;;;;;;;3.97;1.80;;;;;;;9.24;89.20;96697.47;4142872;28;20206;-84
2022/04/08 08:35:30;;;;;;;4.13;1.50;;;;;;;9.27;88.83;96697.19;4125635;28;21216;-84
2022/04/08 08:37:36;;;;;;;6.07;1.63;;;;;;;9.17;90.28;96696.34;4140263;28;20707;-85
2022/04/08 08:39:42;;;;;;;3.53;1.95;;;;;;;9.10;89.31;96697.00;4139424;28;20630;-84
2022/04/08 08:41:47;;;;;;;3.65;1.60;;;;;;;9.14;90.91;96696.59;4137560;28;20264;-84
2022/04/08 08:43:54;;;;;;;3.63;1.45;;;;;;;9.11;89.42;96693.44;4134272;28;20219;-84
2022/04/08 08:45:58;;;;;;;2.70;1.00;;;;;;;9.05;87.79;96694.78;4133084;28;20211;-84
2022/04/08 08:48:05;;;;;;;1.40;1.00;;;;;;;8.96;88.02;96687.75;4139844;28;20234;-84
2022/04/08 08:50:11;;;;;;;3.33;1.25;;;;;;;8.87;88.82;96687.72;4133136;28;20772;-84
2022/04/08 08:52:15;;;;;;;2.33;1.17;;;;;;;8.93;89.66;96695.81;4133016;28;20216;-85
2022/04/08 08:54:21;;;;;;;1.92;0.95;;;;;;;8.91;87.54;96677.88;4151100;28;20569;-85
2022/04/08 08:56:25;;;;;;;2.15;1.00;;;;;;;8.97;88.36;96681.59;4134637;28;20204;-84
2022/04/08 08:58:34;;;;;;;2.45;1.10;;;;;;;9.01;88.40;96688.19;4132044;28;20213;-84
2022/04/08 09:00:39;;;;;;;3.15;1.20;;;;;;;9.00;88.64;96678.72;4135477;28;20208;-84
2022/04/08 09:02:44;;;;;;;2.25;1.10;;;;;;;8.92;88.93;96675.97;4125784;28;20817;-84
2022/04/08 09:04:49;;;;;;;2.90;1.40;;;;;;;8.92;90.17;96674.34;4149335;28;20192;-83
2022/04/08 09:06:54;;;;;;;11.93;7.15;;;;;;;8.91;89.40;96670.91;4129874;28;20242;-83
2022/04/08 09:08:58;;;;;;;5.30;2.55;;;;;;;8.88;88.67;96670.34;4147945;28;20260;-83
2022/04/08 09:11:05;;;;;;;2.70;1.75;;;;;;;8.92;89.44;96663.94;4129514;28;20207;-83
2022/04/08 09:13:09;;;;;;;2.95;1.40;;;;;;;8.97;89.48;96663.38;4133554;28;20231;-83
2022/04/08 09:15:15;;;;;;;2.78;1.10;;;;;;;9.08;90.85;96662.47;4136393;28;20204;-82
2022/04/08 09:17:18;;;;;;;2.70;1.40;;;;;;;9.18;90.69;96661.56;4152055;28;20203;-83
2022/04/08 09:19:22;;;;;;;2.27;1.00;;;;;;;9.21;89.66;96656.09;4150201;28;20212;-83
2022/04/08 09:21:26;;;;;;;2.13;1.10;;;;;;;9.21;89.48;96652.69;4131364;28;20674;-83
2022/04/08 09:23:33;;;;;;;3.00;1.20;;;;;;;9.29;88.68;96645.03;4134694;28;20667;-83
2022/04/08 09:25:39;;;;;;;2.00;1.20;;;;;;;9.37;89.86;96642.59;4132516;28;20722;-84
2022/04/08 09:27:44;;;;;;;2.03;0.83;;;;;;;9.40;89.62;96643.16;4132179;28;20642;-84
2022/04/08 09:29:48;;;;;;;3.13;1.07;;;;;;;9.40;90.37;96633.56;4147130;28;20748;-83
2022/04/08 09:32:11;;;;;;;3.10;1.40;;;;;;;9.37;90.08;96627.81;4144802;28;20656;-84
2022/04/08 09:34:17;;;;;;;3.00;1.50;;;;;;;9.48;90.41;96619.91;4135370;28;20978;-84
2022/04/08 09:36:28;;;;;;;1.50;1.10;;;;;;;9.52;90.79;96610.88;4136064;28;20691;-84
2022/04/08 09:38:31;;;;;;;2.87;1.37;;;;;;;9.65;89.76;96607.06;4134880;28;20741;-84
2022/04/08 09:40:37;;;;;;;2.27;1.30;;;;;;;9.77;89.21;96598.13;4131248;28;20630;-83
2022/04/08 09:42:48;;;;;;;3.58;1.30;;;;;;;9.85;88.79;96593.91;4124687;28;20639;-84
2022/04/08 09:44:52;;;;;;;2.60;1.33;;;;;;;9.84;88.42;96586.22;4131965;28;20267;-83
2022/04/08 09:46:55;;;;;;;2.00;1.37;;;;;;;9.87;88.70;96584.16;4130457;28;20639;-83
2022/04/08 09:48:59;;;;;;;2.70;1.17;;;;;;;9.87;88.71;96570.34;4131216;28;20669;-84
2022/04/08 09:51:02;;;;;;;5.03;1.40;;;;;;;9.84;88.83;96566.22;4145030;28;20639;-84